sensor_id;sensor_type;location;lat;lon;timestamp;temperature;humidity
46608;DHT22;32330;51.936;7.184;2022-09-17T00:01:55;11.50;99.90
46608;DHT22;32330;51.936;7.184;2022-09-17T00:04:21;11.50;99.90
46608;DHT22;32330;51.936;7.184;2022-09-17T00:06:47;11.50;99.90
46608;DHT22;32330;51.936;7.184;2022-09-17T00:09:13;11.50;99.90
46608;DHT22;32330;51.936;7.184;2022-09-17T00:11:41;11.50;99.90
46608;DHT22;32330;51.936;7.184;2022-09-17T00:14:09;11.50;99.90
46608;DHT22;32330;51.936;7.184;2022-09-17T00:16:39;11.40;99.90
46608;DHT22;32330;51.936;7.184;2022-09-17T00:19:08;11.40;99.90
46608;DHT22;32330;51.936;7.184;2022-09-17T00:21:35;11.40;99.90
46608;DHT22;32330;51.936;7.184;2022-09-17T00:24:02;11.40;99.90
46608;DHT22;32330;51.936;7.184;2022-09-17T00:26:31;11.40;99.90
46608;DHT22;32330;51.936;7.184;2022-09-17T00:28:57;11.30;99.90
46608;DHT22;32330;51.936;7.184;2022-09-17T00:31:24;11.30;99.90
46608;DHT22;32330;51.936;7.184;2022-09-17T00:33:51;11.30;99.90
46608;DHT22;32330;51.936;7.184;2022-09-17T00:36:17;11.30;99.90
46608;DHT22;32330;51.936;7.184;2022-09-17T00:38:50;11.30;99.90
46608;DHT22;32330;51.936;7.184;2022-09-17T00:41:17;11.20;99.90
46608;DHT22;32330;51.936;7.184;2022-09-17T00:46:34;11.20;99.90
46608;DHT22;32330;51.936;7.184;2022-09-17T00:49:06;11.20;99.90
46608;DHT22;32330;51.936;7.184;2022-09-17T00:51:38;11.20;99.90
46608;DHT22;32330;51.936;7.184;2022-09-17T00:54:07;11.20;99.90
46608;DHT22;32330;51.936;7.184;2022-09-17T00:56:36;11.20;99.90
46608;DHT22;32330;51.936;7.184;2022-09-17T00:59:02;11.20;99.90
46608;DHT22;32330;51.936;7.184;2022-09-17T01:01:29;11.20;99.90
46608;DHT22;32330;51.936;7.184;2022-09-17T01:03:55;11.20;99.90
46608;DHT22;32330;51.936;7.184;2022-09-17T01:06:36;11.20;99.90
46608;DHT22;32330;51.936;7.184;2022-09-17T01:12:11;11.20;99.90
46608;DHT22;32330;51.936;7.184;2022-09-17T01:15:17;11.10;99.90
46608;DHT22;32330;51.936;7.184;2022-09-17T01:17:55;11.00;99.90
46608;DHT22;32330;51.936;7.184;2022-09-17T01:23:03;11.00;99.90
46608;DHT22;32330;51.936;7.184;2022-09-17T01:25:46;11.00;99.90
46608;DHT22;32330;51.936;7.184;2022-09-17T01:34:21;10.90;99.90
46608;DHT22;32330;51.936;7.184;2022-09-17T01:37:05;10.90;99.90
46608;DHT22;32330;51.936;7.184;2022-09-17T01:39:49;10.90;99.90
46608;DHT22;32330;51.936;7.184;2022-09-17T01:42:28;10.90;99.90
46608;DHT22;32330;51.936;7.184;2022-09-17T01:45:08;10.90;99.90
46608;DHT22;32330;51.936;7.184;2022-09-17T01:47:38;10.90;99.90
46608;DHT22;32330;51.936;7.184;2022-09-17T01:50:10;10.90;99.90
46608;DHT22;32330;51.936;7.184;2022-09-17T01:52:39;11.00;99.90
46608;DHT22;32330;51.936;7.184;2022-09-17T01:55:13;11.00;99.90
46608;DHT22;32330;51.936;7.184;2022-09-17T01:57:46;11.00;99.90
46608;DHT22;32330;51.936;7.184;2022-09-17T02:00:14;11.00;99.90
46608;DHT22;32330;51.936;7.184;2022-09-17T02:03:05;11.00;99.90
46608;DHT22;32330;51.936;7.184;2022-09-17T02:05:39;11.00;99.90
46608;DHT22;32330;51.936;7.184;2022-09-17T02:08:09;11.00;99.90
46608;DHT22;32330;51.936;7.184;2022-09-17T02:10:39;10.90;99.90
46608;DHT22;32330;51.936;7.184;2022-09-17T02:13:18;10.90;99.90
46608;DHT22;32330;51.936;7.184;2022-09-17T02:16:05;10.90;99.90
46608;DHT22;32330;51.936;7.184;2022-09-17T02:18:55;10.90;99.90
46608;DHT22;32330;51.936;7.184;2022-09-17T02:21:29;10.90;99.90
46608;DHT22;32330;51.936;7.184;2022-09-17T02:24:20;10.90;99.90
46608;DHT22;32330;51.936;7.184;2022-09-17T02:26:58;10.90;99.90
46608;DHT22;32330;51.936;7.184;2022-09-17T02:29:46;10.90;99.90
46608;DHT22;32330;51.936;7.184;2022-09-17T02:32:12;10.90;99.90
46608;DHT22;32330;51.936;7.184;2022-09-17T02:34:38;10.80;99.90
46608;DHT22;32330;51.936;7.184;2022-09-17T02:37:05;10.80;99.90
46608;DHT22;32330;51.936;7.184;2022-09-17T02:39:31;10.80;99.90
46608;DHT22;32330;51.936;7.184;2022-09-17T02:55:42;10.70;99.90
46608;DHT22;32330;51.936;7.184;2022-09-17T02:58:23;10.60;99.90
46608;DHT22;32330;51.936;7.184;2022-09-17T03:00:50;10.60;99.90
46608;DHT22;32330;51.936;7.184;2022-09-17T03:05:46;10.60;99.90
46608;DHT22;32330;51.936;7.184;2022-09-17T03:08:13;10.60;99.90
46608;DHT22;32330;51.936;7.184;2022-09-17T03:10:39;10.60;99.90
46608;DHT22;32330;51.936;7.184;2022-09-17T03:13:05;10.60;99.90
46608;DHT22;32330;51.936;7.184;2022-09-17T03:15:31;10.60;99.90
46608;DHT22;32330;51.936;7.184;2022-09-17T03:17:57;10.60;99.90
46608;DHT22;32330;51.936;7.184;2022-09-17T03:20:22;10.60;99.90
46608;DHT22;32330;51.936;7.184;2022-09-17T03:22:50;10.50;99.90
46608;DHT22;32330;51.936;7.184;2022-09-17T03:25:16;10.50;99.90
46608;DHT22;32330;51.936;7.184;2022-09-17T03:27:41;10.50;99.90
46608;DHT22;32330;51.936;7.184;2022-09-17T03:30:08;10.50;99.90
46608;DHT22;32330;51.936;7.184;2022-09-17T03:32:33;10.50;99.90
46608;DHT22;32330;51.936;7.184;2022-09-17T03:34:59;10.50;99.90
46608;DHT22;32330;51.936;7.184;2022-09-17T03:37:24;10.50;99.90
46608;DHT22;32330;51.936;7.184;2022-09-17T03:39:50;10.50;99.90
46608;DHT22;32330;51.936;7.184;2022-09-17T03:42:15;10.40;99.90
46608;DHT22;32330;51.936;7.184;2022-09-17T03:44:41;10.50;99.90
46608;DHT22;32330;51.936;7.184;2022-09-17T03:47:07;10.50;99.90
46608;DHT22;32330;51.936;7.184;2022-09-17T03:49:32;10.50;99.90
46608;DHT22;32330;51.936;7.184;2022-09-17T03:51:58;10.50;99.90
46608;DHT22;32330;51.936;7.184;2022-09-17T03:54:24;10.50;99.90
46608;DHT22;32330;51.936;7.184;2022-09-17T03:56:50;10.40;99.90
46608;DHT22;32330;51.936;7.184;2022-09-17T03:59:15;10.40;99.90
46608;DHT22;32330;51.936;7.184;2022-09-17T04:01:41;10.40;99.90
46608;DHT22;32330;51.936;7.184;2022-09-17T04:04:07;10.40;99.90
46608;DHT22;32330;51.936;7.184;2022-09-17T04:06:33;10.40;99.90
46608;DHT22;32330;51.936;7.184;2022-09-17T04:08:58;10.40;99.90
46608;DHT22;32330;51.936;7.184;2022-09-17T04:11:25;10.40;99.90
46608;DHT22;32330;51.936;7.184;2022-09-17T04:13:51;10.40;99.90
46608;DHT22;32330;51.936;7.184;2022-09-17T04:16:16;10.40;99.90
46608;DHT22;32330;51.936;7.184;2022-09-17T04:18:42;10.40;99.90
46608;DHT22;32330;51.936;7.184;2022-09-17T04:21:07;10.40;99.90
46608;DHT22;32330;51.936;7.184;2022-09-17T04:23:33;10.40;99.90
46608;DHT22;32330;51.936;7.184;2022-09-17T04:25:59;10.30;99.90
46608;DHT22;32330;51.936;7.184;2022-09-17T04:28:24;10.40;99.90
46608;DHT22;32330;51.936;7.184;2022-09-17T04:30:50;10.40;99.90
46608;DHT22;32330;51.936;7.184;2022-09-17T04:33:15;10.30;99.90
46608;DHT22;32330;51.936;7.184;2022-09-17T04:35:41;10.30;99.90
46608;DHT22;32330;51.936;7.184;2022-09-17T04:38:06;10.30;99.90
46608;DHT22;32330;51.936;7.184;2022-09-17T04:40:33;10.40;99.90
46608;DHT22;32330;51.936;7.184;2022-09-17T04:42:59;10.30;99.90
46608;DHT22;32330;51.936;7.184;2022-09-17T04:45:27;10.30;99.90
46608;DHT22;32330;51.936;7.184;2022-09-17T04:47:53;10.30;99.90
46608;DHT22;32330;51.936;7.184;2022-09-17T04:50:20;10.40;99.90
46608;DHT22;32330;51.936;7.184;2022-09-17T04:52:45;10.30;99.90
46608;DHT22;32330;51.936;7.184;2022-09-17T04:55:12;10.30;99.90
46608;DHT22;32330;51.936;7.184;2022-09-17T04:57:38;10.30;99.90
46608;DHT22;32330;51.936;7.184;2022-09-17T05:00:05;10.30;99.90
46608;DHT22;32330;51.936;7.184;2022-09-17T05:02:33;10.30;99.90
46608;DHT22;32330;51.936;7.184;2022-09-17T05:04:58;10.40;99.90
46608;DHT22;32330;51.936;7.184;2022-09-17T05:07:24;10.40;99.90
46608;DHT22;32330;51.936;7.184;2022-09-17T05:09:49;10.40;99.90
46608;DHT22;32330;51.936;7.184;2022-09-17T05:12:15;10.30;99.90
46608;DHT22;32330;51.936;7.184;2022-09-17T05:14:40;10.30;99.90
46608;DHT22;32330;51.936;7.184;2022-09-17T05:17:06;10.40;99.90
46608;DHT22;32330;51.936;7.184;2022-09-17T05:19:31;10.30;99.90
46608;DHT22;32330;51.936;7.184;2022-09-17T05:21:57;10.30;99.90
46608;DHT22;32330;51.936;7.184;2022-09-17T05:24:22;10.30;99.90
46608;DHT22;32330;51.936;7.184;2022-09-17T05:26:48;10.40;99.90
46608;DHT22;32330;51.936;7.184;2022-09-17T05:29:13;10.40;99.90
46608;DHT22;32330;51.936;7.184;2022-09-17T05:31:39;10.40;99.90
46608;DHT22;32330;51.936;7.184;2022-09-17T05:34:04;10.40;99.90
46608;DHT22;32330;51.936;7.184;2022-09-17T05:36:30;10.30;99.90
46608;DHT22;32330;51.936;7.184;2022-09-17T05:38:55;10.30;99.90
46608;DHT22;32330;51.936;7.184;2022-09-17T05:41:21;10.30;99.90
46608;DHT22;32330;51.936;7.184;2022-09-17T05:43:46;10.30;99.90
46608;DHT22;32330;51.936;7.184;2022-09-17T05:46:12;10.40;99.90
46608;DHT22;32330;51.936;7.184;2022-09-17T05:48:37;10.30;99.90
46608;DHT22;32330;51.936;7.184;2022-09-17T05:51:03;10.30;99.90
46608;DHT22;32330;51.936;7.184;2022-09-17T05:53:29;10.30;99.90
46608;DHT22;32330;51.936;7.184;2022-09-17T05:55:58;10.30;99.90
46608;DHT22;32330;51.936;7.184;2022-09-17T05:58:24;10.30;99.90
46608;DHT22;32330;51.936;7.184;2022-09-17T06:00:50;10.20;99.90
46608;DHT22;32330;51.936;7.184;2022-09-17T06:03:17;10.30;99.90
46608;DHT22;32330;51.936;7.184;2022-09-17T06:05:52;10.30;99.90
46608;DHT22;32330;51.936;7.184;2022-09-17T06:08:18;10.30;99.90
46608;DHT22;32330;51.936;7.184;2022-09-17T06:10:43;10.30;99.90
46608;DHT22;32330;51.936;7.184;2022-09-17T06:13:09;10.30;99.90
46608;DHT22;32330;51.936;7.184;2022-09-17T06:15:34;10.40;99.90
46608;DHT22;32330;51.936;7.184;2022-09-17T06:18:00;10.40;99.90
46608;DHT22;32330;51.936;7.184;2022-09-17T06:20:25;10.50;99.90
46608;DHT22;32330;51.936;7.184;2022-09-17T06:22:57;10.50;99.90
46608;DHT22;32330;51.936;7.184;2022-09-17T06:25:23;10.60;99.90
46608;DHT22;32330;51.936;7.184;2022-09-17T06:27:49;10.60;99.90
46608;DHT22;32330;51.936;7.184;2022-09-17T06:30:15;10.70;99.90
46608;DHT22;32330;51.936;7.184;2022-09-17T06:32:40;10.70;99.90
46608;DHT22;32330;51.936;7.184;2022-09-17T06:35:06;10.70;99.90
46608;DHT22;32330;51.936;7.184;2022-09-17T06:37:32;10.80;99.90
46608;DHT22;32330;51.936;7.184;2022-09-17T06:39:58;10.90;99.90
46608;DHT22;32330;51.936;7.184;2022-09-17T06:42:27;10.90;99.90
46608;DHT22;32330;51.936;7.184;2022-09-17T06:44:53;10.90;99.90
46608;DHT22;32330;51.936;7.184;2022-09-17T06:47:18;11.00;99.90
46608;DHT22;32330;51.936;7.184;2022-09-17T06:49:45;11.00;99.90
46608;DHT22;32330;51.936;7.184;2022-09-17T06:52:10;11.10;99.90
46608;DHT22;32330;51.936;7.184;2022-09-17T06:54:36;11.20;99.90
46608;DHT22;32330;51.936;7.184;2022-09-17T06:57:01;11.20;99.90
46608;DHT22;32330;51.936;7.184;2022-09-17T06:59:27;11.30;99.90
46608;DHT22;32330;51.936;7.184;2022-09-17T07:01:52;11.30;99.90
46608;DHT22;32330;51.936;7.184;2022-09-17T07:04:18;11.30;99.90
46608;DHT22;32330;51.936;7.184;2022-09-17T07:06:44;11.30;99.90
46608;DHT22;32330;51.936;7.184;2022-09-17T07:09:10;11.40;99.90
46608;DHT22;32330;51.936;7.184;2022-09-17T07:11:37;11.50;99.90
46608;DHT22;32330;51.936;7.184;2022-09-17T07:14:02;11.60;99.90
46608;DHT22;32330;51.936;7.184;2022-09-17T07:16:29;11.70;99.90
46608;DHT22;32330;51.936;7.184;2022-09-17T07:19:01;11.80;99.90
46608;DHT22;32330;51.936;7.184;2022-09-17T07:21:27;11.80;99.90
46608;DHT22;32330;51.936;7.184;2022-09-17T07:23:52;11.90;99.90
46608;DHT22;32330;51.936;7.184;2022-09-17T07:26:18;11.90;99.90
46608;DHT22;32330;51.936;7.184;2022-09-17T07:28:43;12.00;99.90
46608;DHT22;32330;51.936;7.184;2022-09-17T07:31:10;12.00;99.90
46608;DHT22;32330;51.936;7.184;2022-09-17T07:33:36;12.10;99.90
46608;DHT22;32330;51.936;7.184;2022-09-17T07:36:05;12.20;99.90
46608;DHT22;32330;51.936;7.184;2022-09-17T07:38:31;12.30;99.90
46608;DHT22;32330;51.936;7.184;2022-09-17T07:43:26;12.40;99.90
46608;DHT22;32330;51.936;7.184;2022-09-17T07:45:53;12.50;99.90
46608;DHT22;32330;51.936;7.184;2022-09-17T07:48:19;12.70;99.90
46608;DHT22;32330;51.936;7.184;2022-09-17T07:50:45;12.70;99.90
46608;DHT22;32330;51.936;7.184;2022-09-17T07:53:11;12.80;99.90
46608;DHT22;32330;51.936;7.184;2022-09-17T07:55:37;12.80;99.90
46608;DHT22;32330;51.936;7.184;2022-09-17T07:58:02;12.90;99.90
46608;DHT22;32330;51.936;7.184;2022-09-17T08:00:28;12.90;99.90
46608;DHT22;32330;51.936;7.184;2022-09-17T08:02:54;13.10;99.90
46608;DHT22;32330;51.936;7.184;2022-09-17T08:05:20;13.20;99.90
46608;DHT22;32330;51.936;7.184;2022-09-17T08:07:53;13.40;99.90
46608;DHT22;32330;51.936;7.184;2022-09-17T08:10:20;13.30;99.90
46608;DHT22;32330;51.936;7.184;2022-09-17T08:12:54;13.60;99.90
46608;DHT22;32330;51.936;7.184;2022-09-17T08:15:20;13.60;99.90
46608;DHT22;32330;51.936;7.184;2022-09-17T08:17:46;13.70;99.90
46608;DHT22;32330;51.936;7.184;2022-09-17T08:20:12;13.50;99.90
46608;DHT22;32330;51.936;7.184;2022-09-17T08:22:38;13.70;99.90
46608;DHT22;32330;51.936;7.184;2022-09-17T08:25:05;13.70;99.90
46608;DHT22;32330;51.936;7.184;2022-09-17T08:27:31;13.70;99.90
46608;DHT22;32330;51.936;7.184;2022-09-17T08:29:57;13.90;99.90
46608;DHT22;32330;51.936;7.184;2022-09-17T08:32:23;13.80;99.90
46608;DHT22;32330;51.936;7.184;2022-09-17T08:34:49;13.90;99.90
46608;DHT22;32330;51.936;7.184;2022-09-17T08:37:15;14.10;99.90
46608;DHT22;32330;51.936;7.184;2022-09-17T08:39:41;14.20;99.90
46608;DHT22;32330;51.936;7.184;2022-09-17T08:42:26;14.20;99.90
46608;DHT22;32330;51.936;7.184;2022-09-17T08:44:56;14.30;99.90
46608;DHT22;32330;51.936;7.184;2022-09-17T08:49:59;14.40;99.90
46608;DHT22;32330;51.936;7.184;2022-09-17T08:52:54;14.60;99.90
46608;DHT22;32330;51.936;7.184;2022-09-17T09:00:32;14.90;99.90
46608;DHT22;32330;51.936;7.184;2022-09-17T09:05:53;15.00;99.90
46608;DHT22;32330;51.936;7.184;2022-09-17T09:08:34;15.00;99.90
46608;DHT22;32330;51.936;7.184;2022-09-17T09:11:03;15.10;99.90
46608;DHT22;32330;51.936;7.184;2022-09-17T09:13:37;15.20;99.90
46608;DHT22;32330;51.936;7.184;2022-09-17T09:16:16;15.00;99.90
46608;DHT22;32330;51.936;7.184;2022-09-17T09:18:42;15.00;99.90
46608;DHT22;32330;51.936;7.184;2022-09-17T09:23:51;15.10;99.90
46608;DHT22;32330;51.936;7.184;2022-09-17T09:26:19;15.40;99.90
46608;DHT22;32330;51.936;7.184;2022-09-17T09:31:46;15.40;99.90
46608;DHT22;32330;51.936;7.184;2022-09-17T09:34:14;15.40;99.90
46608;DHT22;32330;51.936;7.184;2022-09-17T09:36:40;15.30;99.90
46608;DHT22;32330;51.936;7.184;2022-09-17T09:39:20;15.20;99.90
46608;DHT22;32330;51.936;7.184;2022-09-17T09:41:53;15.20;99.90
46608;DHT22;32330;51.936;7.184;2022-09-17T09:44:23;15.30;99.90
46608;DHT22;32330;51.936;7.184;2022-09-17T09:46:59;15.20;99.90
46608;DHT22;32330;51.936;7.184;2022-09-17T09:49:41;15.10;99.90
46608;DHT22;32330;51.936;7.184;2022-09-17T09:52:22;15.00;99.90
46608;DHT22;32330;51.936;7.184;2022-09-17T09:54:57;15.10;99.90
46608;DHT22;32330;51.936;7.184;2022-09-17T09:57:46;15.50;99.90
46608;DHT22;32330;51.936;7.184;2022-09-17T10:00:31;15.80;99.90
46608;DHT22;32330;51.936;7.184;2022-09-17T10:05:28;15.80;98.90
46608;DHT22;32330;51.936;7.184;2022-09-17T10:07:54;15.50;99.90
46608;DHT22;32330;51.936;7.184;2022-09-17T10:10:21;14.70;99.90
46608;DHT22;32330;51.936;7.184;2022-09-17T10:12:46;14.30;99.90
46608;DHT22;32330;51.936;7.184;2022-09-17T10:15:26;14.20;99.90
46608;DHT22;32330;51.936;7.184;2022-09-17T10:18:11;14.30;99.90
46608;DHT22;32330;51.936;7.184;2022-09-17T10:20:48;14.20;99.90
46608;DHT22;32330;51.936;7.184;2022-09-17T10:23:14;14.40;99.90
46608;DHT22;32330;51.936;7.184;2022-09-17T10:25:43;14.70;99.90
46608;DHT22;32330;51.936;7.184;2022-09-17T10:28:28;14.90;99.90
46608;DHT22;32330;51.936;7.184;2022-09-17T10:30:59;15.20;99.90
46608;DHT22;32330;51.936;7.184;2022-09-17T10:33:30;15.40;99.90
46608;DHT22;32330;51.936;7.184;2022-09-17T10:36:05;15.60;99.90
46608;DHT22;32330;51.936;7.184;2022-09-17T10:38:33;15.90;99.90
46608;DHT22;32330;51.936;7.184;2022-09-17T10:43:33;15.60;99.90
46608;DHT22;32330;51.936;7.184;2022-09-17T10:45:59;15.50;99.90
46608;DHT22;32330;51.936;7.184;2022-09-17T10:48:29;15.30;99.90
46608;DHT22;32330;51.936;7.184;2022-09-17T10:50:56;15.40;99.90
46608;DHT22;32330;51.936;7.184;2022-09-17T10:53:24;15.20;99.90
46608;DHT22;32330;51.936;7.184;2022-09-17T10:58:56;15.30;99.90
46608;DHT22;32330;51.936;7.184;2022-09-17T11:01:48;15.30;99.30
46608;DHT22;32330;51.936;7.184;2022-09-17T11:17:43;16.00;98.70
46608;DHT22;32330;51.936;7.184;2022-09-17T11:26:30;16.30;98.00
46608;DHT22;32330;51.936;7.184;2022-09-17T11:29:11;16.20;97.20
46608;DHT22;32330;51.936;7.184;2022-09-17T11:31:49;16.30;97.70
46608;DHT22;32330;51.936;7.184;2022-09-17T11:34:29;16.30;96.90
46608;DHT22;32330;51.936;7.184;2022-09-17T11:37:22;16.30;96.90
46608;DHT22;32330;51.936;7.184;2022-09-17T11:39:56;16.20;96.10
46608;DHT22;32330;51.936;7.184;2022-09-17T11:42:30;16.20;96.10
46608;DHT22;32330;51.936;7.184;2022-09-17T11:45:04;16.50;96.70
46608;DHT22;32330;51.936;7.184;2022-09-17T11:47:46;16.30;97.10
46608;DHT22;32330;51.936;7.184;2022-09-17T11:50:21;16.20;96.60
46608;DHT22;32330;51.936;7.184;2022-09-17T11:53:08;16.30;95.40
46608;DHT22;32330;51.936;7.184;2022-09-17T11:55:46;15.80;94.50
46608;DHT22;32330;51.936;7.184;2022-09-17T12:00:51;16.40;95.10
46608;DHT22;32330;51.936;7.184;2022-09-17T12:03:35;16.50;94.90
46608;DHT22;32330;51.936;7.184;2022-09-17T12:06:15;16.60;95.30
46608;DHT22;32330;51.936;7.184;2022-09-17T12:13:57;15.90;96.00
46608;DHT22;32330;51.936;7.184;2022-09-17T12:16:32;15.60;97.70
46608;DHT22;32330;51.936;7.184;2022-09-17T12:21:50;15.60;99.40
46608;DHT22;32330;51.936;7.184;2022-09-17T12:24:28;15.90;99.90
46608;DHT22;32330;51.936;7.184;2022-09-17T12:27:14;16.10;98.90
46608;DHT22;32330;51.936;7.184;2022-09-17T12:30:01;16.40;98.60
46608;DHT22;32330;51.936;7.184;2022-09-17T12:38:29;15.70;99.90
46608;DHT22;32330;51.936;7.184;2022-09-17T12:41:20;15.20;99.90
46608;DHT22;32330;51.936;7.184;2022-09-17T12:46:43;14.40;99.90
46608;DHT22;32330;51.936;7.184;2022-09-17T12:54:53;14.80;99.90
46608;DHT22;32330;51.936;7.184;2022-09-17T12:57:38;15.00;99.90
46608;DHT22;32330;51.936;7.184;2022-09-17T13:00:10;14.90;99.90
46608;DHT22;32330;51.936;7.184;2022-09-17T13:02:56;14.50;99.90
46608;DHT22;32330;51.936;7.184;2022-09-17T13:05:49;14.30;99.90
46608;DHT22;32330;51.936;7.184;2022-09-17T13:11:55;14.10;99.90
46608;DHT22;32330;51.936;7.184;2022-09-17T13:20:10;14.60;99.90
46608;DHT22;32330;51.936;7.184;2022-09-17T13:22:46;14.30;99.90
46608;DHT22;32330;51.936;7.184;2022-09-17T13:25:15;14.10;99.90
46608;DHT22;32330;51.936;7.184;2022-09-17T13:27:41;14.20;99.90
46608;DHT22;32330;51.936;7.184;2022-09-17T13:30:12;14.50;99.90
46608;DHT22;32330;51.936;7.184;2022-09-17T13:37:32;14.90;99.90
46608;DHT22;32330;51.936;7.184;2022-09-17T13:39:59;15.00;99.90
46608;DHT22;32330;51.936;7.184;2022-09-17T13:42:28;15.10;99.90
46608;DHT22;32330;51.936;7.184;2022-09-17T13:45:07;15.10;99.90
46608;DHT22;32330;51.936;7.184;2022-09-17T13:47:50;15.30;99.90
46608;DHT22;32330;51.936;7.184;2022-09-17T13:50:34;15.50;99.90
46608;DHT22;32330;51.936;7.184;2022-09-17T13:55:46;14.80;99.90
46608;DHT22;32330;51.936;7.184;2022-09-17T13:58:22;14.50;99.90
46608;DHT22;32330;51.936;7.184;2022-09-17T14:16:51;14.10;99.90
46608;DHT22;32330;51.936;7.184;2022-09-17T14:19:47;14.30;99.90
46608;DHT22;32330;51.936;7.184;2022-09-17T14:22:24;14.50;99.90
46608;DHT22;32330;51.936;7.184;2022-09-17T14:24:52;14.60;99.90
46608;DHT22;32330;51.936;7.184;2022-09-17T14:27:43;14.70;99.90
46608;DHT22;32330;51.936;7.184;2022-09-17T14:30:13;14.60;99.90
46608;DHT22;32330;51.936;7.184;2022-09-17T14:32:51;14.40;99.90
46608;DHT22;32330;51.936;7.184;2022-09-17T14:35:38;14.40;99.90
46608;DHT22;32330;51.936;7.184;2022-09-17T14:38:20;14.50;99.90
46608;DHT22;32330;51.936;7.184;2022-09-17T14:41:01;14.50;99.90
46608;DHT22;32330;51.936;7.184;2022-09-17T14:46:19;14.70;99.90
46608;DHT22;32330;51.936;7.184;2022-09-17T14:48:45;14.80;99.90
46608;DHT22;32330;51.936;7.184;2022-09-17T14:56:12;14.60;99.90
46608;DHT22;32330;51.936;7.184;2022-09-17T14:58:55;14.60;99.90
46608;DHT22;32330;51.936;7.184;2022-09-17T15:01:23;14.90;99.90
46608;DHT22;32330;51.936;7.184;2022-09-17T15:03:49;14.90;99.90
46608;DHT22;32330;51.936;7.184;2022-09-17T15:06:22;15.00;99.90
46608;DHT22;32330;51.936;7.184;2022-09-17T15:08:48;15.10;99.90
46608;DHT22;32330;51.936;7.184;2022-09-17T15:11:13;15.20;99.90
46608;DHT22;32330;51.936;7.184;2022-09-17T15:13:50;15.60;99.90
46608;DHT22;32330;51.936;7.184;2022-09-17T15:16:24;15.50;99.90
46608;DHT22;32330;51.936;7.184;2022-09-17T15:18:56;15.10;99.90
46608;DHT22;32330;51.936;7.184;2022-09-17T15:23:57;14.40;99.90
46608;DHT22;32330;51.936;7.184;2022-09-17T15:26:29;14.10;99.90
46608;DHT22;32330;51.936;7.184;2022-09-17T15:28:56;14.00;99.90
46608;DHT22;32330;51.936;7.184;2022-09-17T15:31:23;13.90;99.90
46608;DHT22;32330;51.936;7.184;2022-09-17T15:33:49;13.90;99.90
46608;DHT22;32330;51.936;7.184;2022-09-17T15:36:24;13.80;99.90
46608;DHT22;32330;51.936;7.184;2022-09-17T15:38:51;13.90;99.90
46608;DHT22;32330;51.936;7.184;2022-09-17T15:43:45;13.80;99.90
46608;DHT22;32330;51.936;7.184;2022-09-17T15:46:28;13.90;99.90
46608;DHT22;32330;51.936;7.184;2022-09-17T15:48:56;14.00;99.90
46608;DHT22;32330;51.936;7.184;2022-09-17T15:51:24;14.00;99.90
46608;DHT22;32330;51.936;7.184;2022-09-17T15:53:53;14.10;99.90
46608;DHT22;32330;51.936;7.184;2022-09-17T15:56:37;14.10;99.90
46608;DHT22;32330;51.936;7.184;2022-09-17T15:59:20;14.10;99.90
46608;DHT22;32330;51.936;7.184;2022-09-17T16:01:49;14.20;99.90
46608;DHT22;32330;51.936;7.184;2022-09-17T16:12:02;14.00;99.90
46608;DHT22;32330;51.936;7.184;2022-09-17T16:14:27;14.20;99.90
46608;DHT22;32330;51.936;7.184;2022-09-17T16:16:53;14.00;99.90
46608;DHT22;32330;51.936;7.184;2022-09-17T16:19:21;14.10;99.90
46608;DHT22;32330;51.936;7.184;2022-09-17T16:21:46;13.90;99.90
46608;DHT22;32330;51.936;7.184;2022-09-17T16:24:12;13.90;99.90
46608;DHT22;32330;51.936;7.184;2022-09-17T16:26:37;13.90;99.90
46608;DHT22;32330;51.936;7.184;2022-09-17T16:29:06;13.90;99.90
46608;DHT22;32330;51.936;7.184;2022-09-17T16:31:33;13.90;99.90
46608;DHT22;32330;51.936;7.184;2022-09-17T16:33:58;13.80;99.90
46608;DHT22;32330;51.936;7.184;2022-09-17T16:36:25;13.80;99.90
46608;DHT22;32330;51.936;7.184;2022-09-17T16:38:51;13.70;99.90
46608;DHT22;32330;51.936;7.184;2022-09-17T16:41:17;13.60;99.90
46608;DHT22;32330;51.936;7.184;2022-09-17T16:43:42;13.50;99.90
46608;DHT22;32330;51.936;7.184;2022-09-17T16:46:09;13.50;99.90
46608;DHT22;32330;51.936;7.184;2022-09-17T16:48:36;13.50;99.90
46608;DHT22;32330;51.936;7.184;2022-09-17T16:51:09;13.50;99.90
46608;DHT22;32330;51.936;7.184;2022-09-17T16:53:35;13.50;99.90
46608;DHT22;32330;51.936;7.184;2022-09-17T16:56:05;13.50;99.90
46608;DHT22;32330;51.936;7.184;2022-09-17T16:58:31;13.50;99.90
46608;DHT22;32330;51.936;7.184;2022-09-17T17:00:57;13.50;99.90
46608;DHT22;32330;51.936;7.184;2022-09-17T17:03:22;13.40;99.90
46608;DHT22;32330;51.936;7.184;2022-09-17T17:05:48;13.30;99.90
46608;DHT22;32330;51.936;7.184;2022-09-17T17:08:13;13.30;99.90
46608;DHT22;32330;51.936;7.184;2022-09-17T17:10:39;13.20;99.90
46608;DHT22;32330;51.936;7.184;2022-09-17T17:13:04;13.20;99.90
46608;DHT22;32330;51.936;7.184;2022-09-17T17:15:31;13.10;99.90
46608;DHT22;32330;51.936;7.184;2022-09-17T17:17:57;13.10;99.90
46608;DHT22;32330;51.936;7.184;2022-09-17T17:20:22;13.00;99.90
46608;DHT22;32330;51.936;7.184;2022-09-17T17:22:48;13.00;99.90
46608;DHT22;32330;51.936;7.184;2022-09-17T17:25:16;12.90;99.90
46608;DHT22;32330;51.936;7.184;2022-09-17T17:27:41;12.90;99.90
46608;DHT22;32330;51.936;7.184;2022-09-17T17:30:09;12.80;99.90
46608;DHT22;32330;51.936;7.184;2022-09-17T17:32:41;12.80;99.90
46608;DHT22;32330;51.936;7.184;2022-09-17T17:35:07;12.70;99.90
46608;DHT22;32330;51.936;7.184;2022-09-17T17:37:33;12.60;99.90
46608;DHT22;32330;51.936;7.184;2022-09-17T17:39:58;12.60;99.90
46608;DHT22;32330;51.936;7.184;2022-09-17T17:42:24;12.60;99.90
46608;DHT22;32330;51.936;7.184;2022-09-17T17:44:49;12.50;99.90
46608;DHT22;32330;51.936;7.184;2022-09-17T17:47:15;12.60;99.90
46608;DHT22;32330;51.936;7.184;2022-09-17T17:49:40;12.50;99.90
46608;DHT22;32330;51.936;7.184;2022-09-17T17:52:06;12.50;99.90
46608;DHT22;32330;51.936;7.184;2022-09-17T17:54:31;12.50;99.90
46608;DHT22;32330;51.936;7.184;2022-09-17T17:56:57;12.50;99.90
46608;DHT22;32330;51.936;7.184;2022-09-17T17:59:23;12.40;99.90
46608;DHT22;32330;51.936;7.184;2022-09-17T18:01:48;12.30;99.90
46608;DHT22;32330;51.936;7.184;2022-09-17T18:04:14;12.40;99.90
46608;DHT22;32330;51.936;7.184;2022-09-17T18:06:39;12.40;99.90
46608;DHT22;32330;51.936;7.184;2022-09-17T18:09:05;12.30;99.90
46608;DHT22;32330;51.936;7.184;2022-09-17T18:11:32;12.30;99.90
46608;DHT22;32330;51.936;7.184;2022-09-17T18:13:58;12.20;99.90
46608;DHT22;32330;51.936;7.184;2022-09-17T18:16:27;12.20;99.90
46608;DHT22;32330;51.936;7.184;2022-09-17T18:18:55;12.10;99.90
46608;DHT22;32330;51.936;7.184;2022-09-17T18:21:24;12.10;99.90
46608;DHT22;32330;51.936;7.184;2022-09-17T18:23:50;12.00;99.90